sensor_id;sensor_type;location;lat;lon;timestamp;temperature;humidity
17178;DHT22;8704;52.006;4.374;2022-09-29T00:00:55;8.20;99.90
17178;DHT22;8704;52.006;4.374;2022-09-29T00:03:24;8.30;99.90
17178;DHT22;8704;52.006;4.374;2022-09-29T00:05:53;8.20;99.90
17178;DHT22;8704;52.006;4.374;2022-09-29T00:08:24;8.20;99.90
17178;DHT22;8704;52.006;4.374;2022-09-29T00:10:52;8.60;99.90
17178;DHT22;8704;52.006;4.374;2022-09-29T00:13:21;8.20;99.90
17178;DHT22;8704;52.006;4.374;2022-09-29T00:15:59;8.80;99.90
17178;DHT22;8704;52.006;4.374;2022-09-29T00:18:28;8.20;99.90
17178;DHT22;8704;52.006;4.374;2022-09-29T00:20:59;8.50;99.90
17178;DHT22;8704;52.006;4.374;2022-09-29T00:23:28;8.20;99.90
17178;DHT22;8704;52.006;4.374;2022-09-29T00:26:01;8.20;99.90
17178;DHT22;8704;52.006;4.374;2022-09-29T00:28:30;8.20;99.90
17178;DHT22;8704;52.006;4.374;2022-09-29T00:31:01;8.10;99.90
17178;DHT22;8704;52.006;4.374;2022-09-29T00:33:29;8.10;99.90
17178;DHT22;8704;52.006;4.374;2022-09-29T00:35:59;8.20;99.90
17178;DHT22;8704;52.006;4.374;2022-09-29T00:38:28;8.10;99.90
17178;DHT22;8704;52.006;4.374;2022-09-29T00:40:56;8.20;99.90
17178;DHT22;8704;52.006;4.374;2022-09-29T00:43:55;8.10;99.90
17178;DHT22;8704;52.006;4.374;2022-09-29T00:46:30;8.10;99.90
17178;DHT22;8704;52.006;4.374;2022-09-29T00:49:04;8.20;99.90
17178;DHT22;8704;52.006;4.374;2022-09-29T00:51:35;8.20;99.90
17178;DHT22;8704;52.006;4.374;2022-09-29T00:54:05;8.20;99.90
17178;DHT22;8704;52.006;4.374;2022-09-29T00:56:35;8.70;99.90
17178;DHT22;8704;52.006;4.374;2022-09-29T00:59:07;9.00;99.90
17178;DHT22;8704;52.006;4.374;2022-09-29T01:01:37;8.20;99.90
17178;DHT22;8704;52.006;4.374;2022-09-29T01:04:09;8.60;99.90
17178;DHT22;8704;52.006;4.374;2022-09-29T01:06:38;8.20;99.90
17178;DHT22;8704;52.006;4.374;2022-09-29T01:09:08;8.20;99.90
17178;DHT22;8704;52.006;4.374;2022-09-29T01:11:37;8.20;99.90
17178;DHT22;8704;52.006;4.374;2022-09-29T01:14:07;8.20;99.90
17178;DHT22;8704;52.006;4.374;2022-09-29T01:16:38;8.20;99.90
17178;DHT22;8704;52.006;4.374;2022-09-29T01:19:12;8.20;99.90
17178;DHT22;8704;52.006;4.374;2022-09-29T01:21:49;8.30;99.90
17178;DHT22;8704;52.006;4.374;2022-09-29T01:24:41;8.30;99.90
17178;DHT22;8704;52.006;4.374;2022-09-29T01:27:21;8.30;99.90
17178;DHT22;8704;52.006;4.374;2022-09-29T01:30:11;8.30;99.90
17178;DHT22;8704;52.006;4.374;2022-09-29T01:33:11;8.30;99.90
17178;DHT22;8704;52.006;4.374;2022-09-29T01:35:51;8.30;99.90
17178;DHT22;8704;52.006;4.374;2022-09-29T01:38:41;8.30;99.90
17178;DHT22;8704;52.006;4.374;2022-09-29T01:41:20;8.40;99.90
17178;DHT22;8704;52.006;4.374;2022-09-29T01:43:54;8.30;99.90
17178;DHT22;8704;52.006;4.374;2022-09-29T01:46:28;8.30;99.90
17178;DHT22;8704;52.006;4.374;2022-09-29T01:49:00;8.30;99.90
17178;DHT22;8704;52.006;4.374;2022-09-29T01:51:34;8.90;99.90
17178;DHT22;8704;52.006;4.374;2022-09-29T01:54:07;8.30;99.90
17178;DHT22;8704;52.006;4.374;2022-09-29T01:56:40;8.40;99.90
17178;DHT22;8704;52.006;4.374;2022-09-29T01:59:15;8.20;99.90
17178;DHT22;8704;52.006;4.374;2022-09-29T02:01:46;8.20;99.90
17178;DHT22;8704;52.006;4.374;2022-09-29T02:04:22;8.20;99.90
17178;DHT22;8704;52.006;4.374;2022-09-29T02:06:56;8.20;99.90
17178;DHT22;8704;52.006;4.374;2022-09-29T02:09:29;8.20;99.90
17178;DHT22;8704;52.006;4.374;2022-09-29T02:12:00;8.10;99.90
17178;DHT22;8704;52.006;4.374;2022-09-29T02:14:32;8.10;99.90
17178;DHT22;8704;52.006;4.374;2022-09-29T02:17:04;8.20;99.90
17178;DHT22;8704;52.006;4.374;2022-09-29T02:19:37;8.10;99.90
17178;DHT22;8704;52.006;4.374;2022-09-29T02:22:07;8.20;99.90
17178;DHT22;8704;52.006;4.374;2022-09-29T02:24:35;7.70;99.90
17178;DHT22;8704;52.006;4.374;2022-09-29T02:27:04;8.00;99.90
17178;DHT22;8704;52.006;4.374;2022-09-29T02:29:32;7.90;99.90
17178;DHT22;8704;52.006;4.374;2022-09-29T02:32:02;7.90;99.90
17178;DHT22;8704;52.006;4.374;2022-09-29T02:34:32;7.90;99.90
17178;DHT22;8704;52.006;4.374;2022-09-29T02:37:12;7.90;99.90
17178;DHT22;8704;52.006;4.374;2022-09-29T02:39:47;8.00;99.90
17178;DHT22;8704;52.006;4.374;2022-09-29T02:42:25;8.60;99.90
17178;DHT22;8704;52.006;4.374;2022-09-29T02:45:12;7.80;99.90
17178;DHT22;8704;52.006;4.374;2022-09-29T02:47:52;7.80;99.90
17178;DHT22;8704;52.006;4.374;2022-09-29T02:50:37;7.80;99.90
17178;DHT22;8704;52.006;4.374;2022-09-29T02:53:14;7.80;99.90
17178;DHT22;8704;52.006;4.374;2022-09-29T02:55:53;8.00;99.90
17178;DHT22;8704;52.006;4.374;2022-09-29T02:58:29;7.70;99.90
17178;DHT22;8704;52.006;4.374;2022-09-29T03:00:59;7.70;99.90
17178;DHT22;8704;52.006;4.374;2022-09-29T03:03:28;8.00;99.90
17178;DHT22;8704;52.006;4.374;2022-09-29T03:05:56;8.50;99.90
17178;DHT22;8704;52.006;4.374;2022-09-29T03:08:25;7.60;99.90
17178;DHT22;8704;52.006;4.374;2022-09-29T03:10:53;7.50;99.90
17178;DHT22;8704;52.006;4.374;2022-09-29T03:13:21;7.60;99.90
17178;DHT22;8704;52.006;4.374;2022-09-29T03:15:49;7.60;99.90
17178;DHT22;8704;52.006;4.374;2022-09-29T03:18:17;7.50;99.90
17178;DHT22;8704;52.006;4.374;2022-09-29T03:20:45;7.50;99.90
17178;DHT22;8704;52.006;4.374;2022-09-29T03:23:13;7.50;99.90
17178;DHT22;8704;52.006;4.374;2022-09-29T03:25:42;8.00;99.90
17178;DHT22;8704;52.006;4.374;2022-09-29T03:28:10;7.40;99.90
17178;DHT22;8704;52.006;4.374;2022-09-29T03:30:38;7.40;99.90
17178;DHT22;8704;52.006;4.374;2022-09-29T03:33:06;7.40;99.90
17178;DHT22;8704;52.006;4.374;2022-09-29T03:35:34;7.40;99.90
17178;DHT22;8704;52.006;4.374;2022-09-29T03:38:02;7.40;99.90
17178;DHT22;8704;52.006;4.374;2022-09-29T03:40:30;7.40;99.90
17178;DHT22;8704;52.006;4.374;2022-09-29T03:42:59;7.90;99.90
17178;DHT22;8704;52.006;4.374;2022-09-29T03:45:27;7.50;99.90
17178;DHT22;8704;52.006;4.374;2022-09-29T03:47:55;7.30;99.90
17178;DHT22;8704;52.006;4.374;2022-09-29T03:50:23;7.20;99.90
17178;DHT22;8704;52.006;4.374;2022-09-29T03:52:51;7.20;99.90
17178;DHT22;8704;52.006;4.374;2022-09-29T03:55:19;7.20;99.90
17178;DHT22;8704;52.006;4.374;2022-09-29T03:57:47;7.20;99.90
17178;DHT22;8704;52.006;4.374;2022-09-29T04:00:16;7.20;99.90
17178;DHT22;8704;52.006;4.374;2022-09-29T04:02:44;7.20;99.90
17178;DHT22;8704;52.006;4.374;2022-09-29T04:05:12;7.20;99.90
17178;DHT22;8704;52.006;4.374;2022-09-29T04:07:40;7.10;99.90
17178;DHT22;8704;52.006;4.374;2022-09-29T04:10:08;7.10;99.90
17178;DHT22;8704;52.006;4.374;2022-09-29T04:12:36;7.10;99.90
17178;DHT22;8704;52.006;4.374;2022-09-29T04:15:05;7.10;99.90
17178;DHT22;8704;52.006;4.374;2022-09-29T04:17:34;7.10;99.90
17178;DHT22;8704;52.006;4.374;2022-09-29T04:20:03;7.10;99.90
17178;DHT22;8704;52.006;4.374;2022-09-29T04:22:31;7.00;99.90
17178;DHT22;8704;52.006;4.374;2022-09-29T04:24:58;7.00;99.90
17178;DHT22;8704;52.006;4.374;2022-09-29T04:27:26;7.00;99.90
17178;DHT22;8704;52.006;4.374;2022-09-29T04:29:54;7.00;99.90
17178;DHT22;8704;52.006;4.374;2022-09-29T04:32:22;7.00;99.90
17178;DHT22;8704;52.006;4.374;2022-09-29T04:34:52;6.90;99.90
17178;DHT22;8704;52.006;4.374;2022-09-29T04:37:20;6.90;99.90
17178;DHT22;8704;52.006;4.374;2022-09-29T04:39:47;7.00;99.90
17178;DHT22;8704;52.006;4.374;2022-09-29T04:42:16;7.00;99.90
17178;DHT22;8704;52.006;4.374;2022-09-29T04:44:44;6.90;99.90
17178;DHT22;8704;52.006;4.374;2022-09-29T04:47:13;6.90;99.90
17178;DHT22;8704;52.006;4.374;2022-09-29T04:49:41;6.90;99.90
17178;DHT22;8704;52.006;4.374;2022-09-29T04:52:11;7.00;99.90
17178;DHT22;8704;52.006;4.374;2022-09-29T04:54:39;6.90;99.90
17178;DHT22;8704;52.006;4.374;2022-09-29T04:57:08;6.90;99.90
17178;DHT22;8704;52.006;4.374;2022-09-29T04:59:36;6.90;99.90
17178;DHT22;8704;52.006;4.374;2022-09-29T05:02:04;7.80;99.90
17178;DHT22;8704;52.006;4.374;2022-09-29T05:04:32;6.90;99.90
17178;DHT22;8704;52.006;4.374;2022-09-29T05:07:00;7.00;99.90
17178;DHT22;8704;52.006;4.374;2022-09-29T05:09:29;7.00;99.90
17178;DHT22;8704;52.006;4.374;2022-09-29T05:12:00;6.90;99.90
17178;DHT22;8704;52.006;4.374;2022-09-29T05:14:28;6.90;99.90
17178;DHT22;8704;52.006;4.374;2022-09-29T05:16:56;6.90;99.90
17178;DHT22;8704;52.006;4.374;2022-09-29T05:19:24;6.90;99.90
17178;DHT22;8704;52.006;4.374;2022-09-29T05:21:52;6.90;99.90
17178;DHT22;8704;52.006;4.374;2022-09-29T05:24:20;6.90;99.90
17178;DHT22;8704;52.006;4.374;2022-09-29T05:26:49;6.90;99.90
17178;DHT22;8704;52.006;4.374;2022-09-29T05:29:24;6.90;99.90
17178;DHT22;8704;52.006;4.374;2022-09-29T05:31:52;6.90;99.90
17178;DHT22;8704;52.006;4.374;2022-09-29T05:34:20;7.70;99.90
17178;DHT22;8704;52.006;4.374;2022-09-29T05:36:48;6.90;99.90
17178;DHT22;8704;52.006;4.374;2022-09-29T05:39:16;7.00;99.90
17178;DHT22;8704;52.006;4.374;2022-09-29T05:41:48;7.00;99.90
17178;DHT22;8704;52.006;4.374;2022-09-29T05:44:17;7.00;99.90
17178;DHT22;8704;52.006;4.374;2022-09-29T05:46:44;7.10;99.90
17178;DHT22;8704;52.006;4.374;2022-09-29T05:49:12;7.00;99.90
17178;DHT22;8704;52.006;4.374;2022-09-29T05:51:40;7.10;99.90
17178;DHT22;8704;52.006;4.374;2022-09-29T05:54:08;7.20;99.90
17178;DHT22;8704;52.006;4.374;2022-09-29T05:56:36;7.10;99.90
17178;DHT22;8704;52.006;4.374;2022-09-29T05:59:12;7.20;99.90
17178;DHT22;8704;52.006;4.374;2022-09-29T06:01:41;7.20;99.90
17178;DHT22;8704;52.006;4.374;2022-09-29T06:04:09;7.30;99.90
17178;DHT22;8704;52.006;4.374;2022-09-29T06:06:37;7.30;99.90
17178;DHT22;8704;52.006;4.374;2022-09-29T06:09:06;7.40;99.90
17178;DHT22;8704;52.006;4.374;2022-09-29T06:11:34;7.50;99.90
17178;DHT22;8704;52.006;4.374;2022-09-29T06:14:02;7.30;99.90
17178;DHT22;8704;52.006;4.374;2022-09-29T06:16:32;7.90;99.90
17178;DHT22;8704;52.006;4.374;2022-09-29T06:19:00;7.30;99.90
17178;DHT22;8704;52.006;4.374;2022-09-29T06:21:30;8.20;99.90
17178;DHT22;8704;52.006;4.374;2022-09-29T06:23:59;7.30;99.90
17178;DHT22;8704;52.006;4.374;2022-09-29T06:26:28;7.40;99.90
17178;DHT22;8704;52.006;4.374;2022-09-29T06:28:56;8.00;99.90
17178;DHT22;8704;52.006;4.374;2022-09-29T06:31:26;7.40;99.90
17178;DHT22;8704;52.006;4.374;2022-09-29T06:33:57;7.40;99.90
17178;DHT22;8704;52.006;4.374;2022-09-29T06:36:28;7.80;99.90
17178;DHT22;8704;52.006;4.374;2022-09-29T06:39:14;7.50;99.90
17178;DHT22;8704;52.006;4.374;2022-09-29T06:41:43;7.60;99.90
17178;DHT22;8704;52.006;4.374;2022-09-29T06:44:17;7.70;99.90
17178;DHT22;8704;52.006;4.374;2022-09-29T06:46:45;7.70;99.90
17178;DHT22;8704;52.006;4.374;2022-09-29T06:49:15;7.80;99.90
17178;DHT22;8704;52.006;4.374;2022-09-29T06:51:43;7.80;99.90
17178;DHT22;8704;52.006;4.374;2022-09-29T06:54:14;7.80;99.90
17178;DHT22;8704;52.006;4.374;2022-09-29T06:56:43;7.90;99.90
17178;DHT22;8704;52.006;4.374;2022-09-29T06:59:12;7.90;99.90
17178;DHT22;8704;52.006;4.374;2022-09-29T07:01:40;8.00;99.90
17178;DHT22;8704;52.006;4.374;2022-09-29T07:04:09;8.00;99.90
17178;DHT22;8704;52.006;4.374;2022-09-29T07:06:38;8.00;99.90
17178;DHT22;8704;52.006;4.374;2022-09-29T07:09:06;8.10;99.90
17178;DHT22;8704;52.006;4.374;2022-09-29T07:11:36;8.10;99.90
17178;DHT22;8704;52.006;4.374;2022-09-29T07:14:05;8.80;99.90
17178;DHT22;8704;52.006;4.374;2022-09-29T07:16:33;8.30;99.90
17178;DHT22;8704;52.006;4.374;2022-09-29T07:19:01;8.30;99.90
17178;DHT22;8704;52.006;4.374;2022-09-29T07:21:29;8.30;99.90
17178;DHT22;8704;52.006;4.374;2022-09-29T07:23:59;8.30;99.90
17178;DHT22;8704;52.006;4.374;2022-09-29T07:26:28;8.40;99.90
17178;DHT22;8704;52.006;4.374;2022-09-29T07:28:56;8.40;99.90
17178;DHT22;8704;52.006;4.374;2022-09-29T07:31:24;8.50;99.90
17178;DHT22;8704;52.006;4.374;2022-09-29T07:33:52;8.50;99.90
17178;DHT22;8704;52.006;4.374;2022-09-29T07:36:20;8.70;99.90
17178;DHT22;8704;52.006;4.374;2022-09-29T07:38:49;8.70;99.90
17178;DHT22;8704;52.006;4.374;2022-09-29T07:41:20;8.60;99.90
17178;DHT22;8704;52.006;4.374;2022-09-29T07:43:48;8.70;99.90
17178;DHT22;8704;52.006;4.374;2022-09-29T07:46:16;8.70;99.90
17178;DHT22;8704;52.006;4.374;2022-09-29T07:48:44;9.10;99.90
17178;DHT22;8704;52.006;4.374;2022-09-29T07:51:14;8.90;99.90
17178;DHT22;8704;52.006;4.374;2022-09-29T07:53:43;9.00;99.90
17178;DHT22;8704;52.006;4.374;2022-09-29T07:56:13;9.00;99.90
17178;DHT22;8704;52.006;4.374;2022-09-29T07:58:43;9.00;99.90
17178;DHT22;8704;52.006;4.374;2022-09-29T08:01:12;9.00;99.90
17178;DHT22;8704;52.006;4.374;2022-09-29T08:03:43;9.00;99.90
17178;DHT22;8704;52.006;4.374;2022-09-29T08:06:12;9.10;99.90
17178;DHT22;8704;52.006;4.374;2022-09-29T08:08:41;9.20;99.90
17178;DHT22;8704;52.006;4.374;2022-09-29T08:11:25;9.20;99.90
17178;DHT22;8704;52.006;4.374;2022-09-29T08:14:00;9.30;99.90
17178;DHT22;8704;52.006;4.374;2022-09-29T08:16:28;9.30;99.90
17178;DHT22;8704;52.006;4.374;2022-09-29T08:18:57;9.40;99.90
17178;DHT22;8704;52.006;4.374;2022-09-29T08:21:25;9.40;99.90
17178;DHT22;8704;52.006;4.374;2022-09-29T08:23:53;9.50;99.90
17178;DHT22;8704;52.006;4.374;2022-09-29T08:26:21;9.50;99.90
17178;DHT22;8704;52.006;4.374;2022-09-29T08:29:08;9.60;99.90
17178;DHT22;8704;52.006;4.374;2022-09-29T08:31:41;9.60;99.90
17178;DHT22;8704;52.006;4.374;2022-09-29T08:34:10;9.70;99.90
17178;DHT22;8704;52.006;4.374;2022-09-29T08:36:39;9.30;99.90
17178;DHT22;8704;52.006;4.374;2022-09-29T08:39:09;9.80;99.90
17178;DHT22;8704;52.006;4.374;2022-09-29T08:41:48;9.90;99.90
17178;DHT22;8704;52.006;4.374;2022-09-29T08:44:22;9.90;99.90
17178;DHT22;8704;52.006;4.374;2022-09-29T08:47:12;9.90;99.90
17178;DHT22;8704;52.006;4.374;2022-09-29T08:49:44;10.00;99.90
17178;DHT22;8704;52.006;4.374;2022-09-29T08:52:16;10.10;99.90
17178;DHT22;8704;52.006;4.374;2022-09-29T08:54:46;10.20;99.90
17178;DHT22;8704;52.006;4.374;2022-09-29T08:57:17;10.30;99.90
17178;DHT22;8704;52.006;4.374;2022-09-29T08:59:51;10.30;99.90
17178;DHT22;8704;52.006;4.374;2022-09-29T09:02:42;10.40;99.90
17178;DHT22;8704;52.006;4.374;2022-09-29T09:05:21;10.50;99.90
17178;DHT22;8704;52.006;4.374;2022-09-29T09:07:55;10.50;99.90
17178;DHT22;8704;52.006;4.374;2022-09-29T09:10:38;10.60;99.90
17178;DHT22;8704;52.006;4.374;2022-09-29T09:13:18;10.60;99.90
17178;DHT22;8704;52.006;4.374;2022-09-29T09:16:03;10.70;99.90
17178;DHT22;8704;52.006;4.374;2022-09-29T09:21:48;11.40;99.90
17178;DHT22;8704;52.006;4.374;2022-09-29T09:24:23;11.00;99.90
17178;DHT22;8704;52.006;4.374;2022-09-29T09:26:55;11.00;99.90
17178;DHT22;8704;52.006;4.374;2022-09-29T09:29:30;11.10;99.90
17178;DHT22;8704;52.006;4.374;2022-09-29T09:32:07;11.20;99.90
17178;DHT22;8704;52.006;4.374;2022-09-29T09:34:39;11.20;99.90
17178;DHT22;8704;52.006;4.374;2022-09-29T09:37:14;11.30;99.90
17178;DHT22;8704;52.006;4.374;2022-09-29T09:39:47;11.40;99.90
17178;DHT22;8704;52.006;4.374;2022-09-29T09:42:22;11.40;99.90
17178;DHT22;8704;52.006;4.374;2022-09-29T09:44:54;11.60;99.90
17178;DHT22;8704;52.006;4.374;2022-09-29T09:47:28;11.50;99.90
17178;DHT22;8704;52.006;4.374;2022-09-29T09:49:58;11.60;99.90
17178;DHT22;8704;52.006;4.374;2022-09-29T09:52:32;11.70;99.90
17178;DHT22;8704;52.006;4.374;2022-09-29T09:55:05;11.80;99.90
17178;DHT22;8704;52.006;4.374;2022-09-29T10:00:31;11.90;99.90
17178;DHT22;8704;52.006;4.374;2022-09-29T10:03:05;12.00;99.90
17178;DHT22;8704;52.006;4.374;2022-09-29T10:05:35;12.70;99.90
17178;DHT22;8704;52.006;4.374;2022-09-29T10:08:09;12.30;99.90
17178;DHT22;8704;52.006;4.374;2022-09-29T10:10:40;12.20;99.90
17178;DHT22;8704;52.006;4.374;2022-09-29T10:13:25;12.30;99.90
17178;DHT22;8704;52.006;4.374;2022-09-29T10:15:55;12.40;99.90
17178;DHT22;8704;52.006;4.374;2022-09-29T10:18:29;12.40;99.90
17178;DHT22;8704;52.006;4.374;2022-09-29T10:20:59;12.50;99.90
17178;DHT22;8704;52.006;4.374;2022-09-29T10:23:29;12.50;99.90
17178;DHT22;8704;52.006;4.374;2022-09-29T10:26:01;12.60;99.90
17178;DHT22;8704;52.006;4.374;2022-09-29T10:28:38;12.80;99.90
17178;DHT22;8704;52.006;4.374;2022-09-29T10:31:19;12.80;99.90
17178;DHT22;8704;52.006;4.374;2022-09-29T10:33:53;12.90;99.90
17178;DHT22;8704;52.006;4.374;2022-09-29T10:36:23;12.90;99.90
17178;DHT22;8704;52.006;4.374;2022-09-29T10:38:52;12.90;99.90
17178;DHT22;8704;52.006;4.374;2022-09-29T10:41:28;12.80;99.90
17178;DHT22;8704;52.006;4.374;2022-09-29T10:44:18;13.00;99.90
17178;DHT22;8704;52.006;4.374;2022-09-29T10:46:50;12.80;99.90
17178;DHT22;8704;52.006;4.374;2022-09-29T10:49:21;12.90;99.90
17178;DHT22;8704;52.006;4.374;2022-09-29T10:51:59;12.80;99.90
17178;DHT22;8704;52.006;4.374;2022-09-29T10:54:31;12.80;99.90
17178;DHT22;8704;52.006;4.374;2022-09-29T10:57:09;12.90;99.90
17178;DHT22;8704;52.006;4.374;2022-09-29T10:59:48;13.20;99.90
17178;DHT22;8704;52.006;4.374;2022-09-29T11:02:23;12.90;99.90
17178;DHT22;8704;52.006;4.374;2022-09-29T11:04:55;13.00;99.90
17178;DHT22;8704;52.006;4.374;2022-09-29T11:07:24;13.20;99.90
17178;DHT22;8704;52.006;4.374;2022-09-29T11:09:52;13.40;99.90
17178;DHT22;8704;52.006;4.374;2022-09-29T11:12:27;13.60;99.90
17178;DHT22;8704;52.006;4.374;2022-09-29T11:14:57;13.70;99.90
17178;DHT22;8704;52.006;4.374;2022-09-29T11:17:26;13.90;99.90
17178;DHT22;8704;52.006;4.374;2022-09-29T11:19:58;14.00;99.90
17178;DHT22;8704;52.006;4.374;2022-09-29T11:22:45;14.50;99.90
17178;DHT22;8704;52.006;4.374;2022-09-29T11:25:36;14.40;99.90
17178;DHT22;8704;52.006;4.374;2022-09-29T11:28:25;14.50;99.90
17178;DHT22;8704;52.006;4.374;2022-09-29T11:31:20;14.70;99.90
17178;DHT22;8704;52.006;4.374;2022-09-29T11:33:59;14.80;81.40
17178;DHT22;8704;52.006;4.374;2022-09-29T11:36:39;15.00;99.90
17178;DHT22;8704;52.006;4.374;2022-09-29T11:39:27;15.20;99.90
17178;DHT22;8704;52.006;4.374;2022-09-29T11:42:07;15.40;99.90
17178;DHT22;8704;52.006;4.374;2022-09-29T11:44:52;15.60;99.90
17178;DHT22;8704;52.006;4.374;2022-09-29T11:47:48;15.90;99.90
17178;DHT22;8704;52.006;4.374;2022-09-29T11:50:33;16.00;99.90
17178;DHT22;8704;52.006;4.374;2022-09-29T11:53:22;16.20;99.90
17178;DHT22;8704;52.006;4.374;2022-09-29T11:56:10;16.30;91.20
17178;DHT22;8704;52.006;4.374;2022-09-29T11:58:54;16.50;94.70
17178;DHT22;8704;52.006;4.374;2022-09-29T12:01:38;16.70;99.90
17178;DHT22;8704;52.006;4.374;2022-09-29T12:04:18;16.70;42.50
17178;DHT22;8704;52.006;4.374;2022-09-29T12:06:54;16.50;91.50
17178;DHT22;8704;52.006;4.374;2022-09-29T12:09:39;17.00;99.90
17178;DHT22;8704;52.006;4.374;2022-09-29T12:12:13;17.30;99.90
17178;DHT22;8704;52.006;4.374;2022-09-29T12:15:01;17.50;98.50
17178;DHT22;8704;52.006;4.374;2022-09-29T12:17:33;17.60;99.90
17178;DHT22;8704;52.006;4.374;2022-09-29T12:20:06;17.60;1.00
17178;DHT22;8704;52.006;4.374;2022-09-29T12:22:42;17.70;47.80
17178;DHT22;8704;52.006;4.374;2022-09-29T12:25:15;17.80;80.00
17178;DHT22;8704;52.006;4.374;2022-09-29T12:27:44;17.90;99.90
17178;DHT22;8704;52.006;4.374;2022-09-29T12:30:19;18.00;99.90
17178;DHT22;8704;52.006;4.374;2022-09-29T12:32:52;17.80;1.00
17178;DHT22;8704;52.006;4.374;2022-09-29T12:35:28;17.90;9.90
17178;DHT22;8704;52.006;4.374;2022-09-29T12:38:05;18.20;1.00
17178;DHT22;8704;52.006;4.374;2022-09-29T12:40:41;18.20;1.00
17178;DHT22;8704;52.006;4.374;2022-09-29T12:43:16;18.50;1.00
17178;DHT22;8704;52.006;4.374;2022-09-29T12:45:53;18.40;1.00
17178;DHT22;8704;52.006;4.374;2022-09-29T12:48:31;18.30;1.00
17178;DHT22;8704;52.006;4.374;2022-09-29T12:51:08;18.20;91.20
17178;DHT22;8704;52.006;4.374;2022-09-29T12:53:44;18.30;1.00
17178;DHT22;8704;52.006;4.374;2022-09-29T12:56:18;18.20;1.00
17178;DHT22;8704;52.006;4.374;2022-09-29T12:58:53;18.10;1.00
17178;DHT22;8704;52.006;4.374;2022-09-29T13:01:26;18.10;1.00
17178;DHT22;8704;52.006;4.374;2022-09-29T13:07:42;17.90;99.90
17178;DHT22;8704;52.006;4.374;2022-09-29T13:10:26;17.80;1.00
17178;DHT22;8704;52.006;4.374;2022-09-29T13:13:24;17.90;1.00
17178;DHT22;8704;52.006;4.374;2022-09-29T13:16:06;17.90;1.00
17178;DHT22;8704;52.006;4.374;2022-09-29T13:21:59;18.10;1.00
17178;DHT22;8704;52.006;4.374;2022-09-29T13:24:42;18.00;1.00
17178;DHT22;8704;52.006;4.374;2022-09-29T13:27:29;18.20;41.40
17178;DHT22;8704;52.006;4.374;2022-09-29T13:30:04;18.40;1.00
17178;DHT22;8704;52.006;4.374;2022-09-29T13:32:38;18.30;1.00
17178;DHT22;8704;52.006;4.374;2022-09-29T13:35:12;18.20;99.90
17178;DHT22;8704;52.006;4.374;2022-09-29T13:37:46;18.20;1.00
17178;DHT22;8704;52.006;4.374;2022-09-29T13:40:19;18.20;1.00
17178;DHT22;8704;52.006;4.374;2022-09-29T13:42:48;18.30;99.90
17178;DHT22;8704;52.006;4.374;2022-09-29T13:45:40;18.30;99.90
17178;DHT22;8704;52.006;4.374;2022-09-29T13:54:27;19.10;1.00
17178;DHT22;8704;52.006;4.374;2022-09-29T13:57:05;19.40;62.40
17178;DHT22;8704;52.006;4.374;2022-09-29T13:59:34;19.70;99.90
17178;DHT22;8704;52.006;4.374;2022-09-29T14:02:24;19.80;1.00
17178;DHT22;8704;52.006;4.374;2022-09-29T14:04:54;19.90;1.00
17178;DHT22;8704;52.006;4.374;2022-09-29T14:07:39;20.30;99.90
17178;DHT22;8704;52.006;4.374;2022-09-29T14:10:20;20.50;1.00
17178;DHT22;8704;52.006;4.374;2022-09-29T14:12:54;21.00;99.90
17178;DHT22;8704;52.006;4.374;2022-09-29T14:15:24;21.20;1.00
17178;DHT22;8704;52.006;4.374;2022-09-29T14:17:57;21.20;1.00
17178;DHT22;8704;52.006;4.374;2022-09-29T14:20:31;21.00;1.00
17178;DHT22;8704;52.006;4.374;2022-09-29T14:23:01;21.00;1.00
17178;DHT22;8704;52.006;4.374;2022-09-29T14:25:33;20.90;1.00
17178;DHT22;8704;52.006;4.374;2022-09-29T14:28:17;20.80;99.90
17178;DHT22;8704;52.006;4.374;2022-09-29T14:30:49;20.60;99.90
17178;DHT22;8704;52.006;4.374;2022-09-29T14:33:22;20.30;44.90
17178;DHT22;8704;52.006;4.374;2022-09-29T14:36:01;20.20;1.00
17178;DHT22;8704;52.006;4.374;2022-09-29T14:38:32;20.20;1.00
17178;DHT22;8704;52.006;4.374;2022-09-29T14:41:19;20.10;1.00
17178;DHT22;8704;52.006;4.374;2022-09-29T14:43:52;20.00;1.00
17178;DHT22;8704;52.006;4.374;2022-09-29T14:50:07;19.80;99.90
17178;DHT22;8704;52.006;4.374;2022-09-29T14:53:12;19.70;99.90
17178;DHT22;8704;52.006;4.374;2022-09-29T14:55:55;19.70;1.00
17178;DHT22;8704;52.006;4.374;2022-09-29T14:58:36;19.40;1.00
17178;DHT22;8704;52.006;4.374;2022-09-29T15:01:12;19.40;99.90
17178;DHT22;8704;52.006;4.374;2022-09-29T15:03:44;19.20;99.90
17178;DHT22;8704;52.006;4.374;2022-09-29T15:06:17;19.00;1.00
17178;DHT22;8704;52.006;4.374;2022-09-29T15:08:53;19.00;99.90
17178;DHT22;8704;52.006;4.374;2022-09-29T15:11:27;19.00;99.90
17178;DHT22;8704;52.006;4.374;2022-09-29T15:13:57;18.80;99.90
17178;DHT22;8704;52.006;4.374;2022-09-29T15:16:31;18.50;99.90
17178;DHT22;8704;52.006;4.374;2022-09-29T15:19:13;18.40;99.90
17178;DHT22;8704;52.006;4.374;2022-09-29T15:21:50;18.30;1.00
17178;DHT22;8704;52.006;4.374;2022-09-29T15:24:37;18.30;99.90
17178;DHT22;8704;52.006;4.374;2022-09-29T15:27:13;18.30;35.60
17178;DHT22;8704;52.006;4.374;2022-09-29T15:29:45;18.70;1.00
17178;DHT22;8704;52.006;4.374;2022-09-29T15:32:20;18.00;1.00
17178;DHT22;8704;52.006;4.374;2022-09-29T15:34:50;18.00;99.90
17178;DHT22;8704;52.006;4.374;2022-09-29T15:37:23;17.70;99.90
17178;DHT22;8704;52.006;4.374;2022-09-29T15:39:51;17.50;1.00
17178;DHT22;8704;52.006;4.374;2022-09-29T15:42:21;17.60;1.00
17178;DHT22;8704;52.006;4.374;2022-09-29T15:44:57;17.40;99.90
17178;DHT22;8704;52.006;4.374;2022-09-29T15:47:27;17.40;1.00
17178;DHT22;8704;52.006;4.374;2022-09-29T15:49:56;17.00;99.90
17178;DHT22;8704;52.006;4.374;2022-09-29T15:52:26;16.90;1.00
17178;DHT22;8704;52.006;4.374;2022-09-29T15:54:56;16.70;1.00
17178;DHT22;8704;52.006;4.374;2022-09-29T15:57:30;16.80;1.00
17178;DHT22;8704;52.006;4.374;2022-09-29T16:00:41;16.80;1.00
17178;DHT22;8704;52.006;4.374;2022-09-29T16:03:13;16.60;92.20
17178;DHT22;8704;52.006;4.374;2022-09-29T16:05:44;16.40;1.00
17178;DHT22;8704;52.006;4.374;2022-09-29T16:08:21;16.30;99.90
17178;DHT22;8704;52.006;4.374;2022-09-29T16:10:52;16.30;99.90
17178;DHT22;8704;52.006;4.374;2022-09-29T16:13:23;16.20;19.40
17178;DHT22;8704;52.006;4.374;2022-09-29T16:15:56;16.00;1.00
17178;DHT22;8704;52.006;4.374;2022-09-29T16:18:27;15.90;1.00
17178;DHT22;8704;52.006;4.374;2022-09-29T16:20:57;15.70;99.90
17178;DHT22;8704;52.006;4.374;2022-09-29T16:23:35;16.80;1.00
17178;DHT22;8704;52.006;4.374;2022-09-29T16:26:15;16.10;99.90
17178;DHT22;8704;52.006;4.374;2022-09-29T16:29:05;15.50;1.00
17178;DHT22;8704;52.006;4.374;2022-09-29T16:31:36;15.40;99.90
17178;DHT22;8704;52.006;4.374;2022-09-29T16:34:22;15.30;99.90
17178;DHT22;8704;52.006;4.374;2022-09-29T16:36:51;15.20;99.90
17178;DHT22;8704;52.006;4.374;2022-09-29T16:39:23;15.20;16.50
17178;DHT22;8704;52.006;4.374;2022-09-29T16:41:53;15.10;49.40
17178;DHT22;8704;52.006;4.374;2022-09-29T16:44:27;15.00;1.00
17178;DHT22;8704;52.006;4.374;2022-09-29T16:46:58;15.70;1.00
17178;DHT22;8704;52.006;4.374;2022-09-29T16:49:28;14.90;99.90
17178;DHT22;8704;52.006;4.374;2022-09-29T16:52:00;14.70;1.00
17178;DHT22;8704;52.006;4.374;2022-09-29T16:54:31;14.70;99.90
17178;DHT22;8704;52.006;4.374;2022-09-29T16:57:23;14.60;1.00
17178;DHT22;8704;52.006;4.374;2022-09-29T16:59:53;14.50;1.00